sensor_id;sensor_type;location;lat;lon;timestamp;pressure;altitude;pressure_sealevel;temperature
68588;BMP180;55560;52.174;20.996;2023-09-12T00:02:14;100267.00;;;19.50
68588;BMP180;55560;52.174;20.996;2023-09-12T00:04:43;100269.20;;;19.50
68588;BMP180;55560;52.174;20.996;2023-09-12T00:07:11;100270.80;;;19.50
68588;BMP180;55560;52.174;20.996;2023-09-12T00:09:39;100264.40;;;19.50
68588;BMP180;55560;52.174;20.996;2023-09-12T00:12:07;100270.20;;;19.50
68588;BMP180;55560;52.174;20.996;2023-09-12T00:14:36;100262.40;;;19.50
68588;BMP180;55560;52.174;20.996;2023-09-12T00:17:03;100266.00;;;19.48
68588;BMP180;55560;52.174;20.996;2023-09-12T00:19:31;100260.40;;;19.40
68588;BMP180;55560;52.174;20.996;2023-09-12T00:21:59;100262.20;;;19.40
68588;BMP180;55560;52.174;20.996;2023-09-12T00:24:27;100258.00;;;19.40
68588;BMP180;55560;52.174;20.996;2023-09-12T00:26:55;100262.00;;;19.38
68588;BMP180;55560;52.174;20.996;2023-09-12T00:29:23;100263.80;;;19.30
68588;BMP180;55560;52.174;20.996;2023-09-12T00:31:50;100268.00;;;19.30
68588;BMP180;55560;52.174;20.996;2023-09-12T00:34:18;100263.20;;;19.30
68588;BMP180;55560;52.174;20.996;2023-09-12T00:36:46;100267.60;;;19.24
68588;BMP180;55560;52.174;20.996;2023-09-12T00:39:14;100266.40;;;19.20
68588;BMP180;55560;52.174;20.996;2023-09-12T00:41:43;100270.80;;;19.20
68588;BMP180;55560;52.174;20.996;2023-09-12T00:44:11;100271.00;;;19.20
68588;BMP180;55560;52.174;20.996;2023-09-12T00:46:40;100265.40;;;19.18
68588;BMP180;55560;52.174;20.996;2023-09-12T00:49:08;100270.80;;;19.10
68588;BMP180;55560;52.174;20.996;2023-09-12T00:51:38;100270.60;;;19.10
68588;BMP180;55560;52.174;20.996;2023-09-12T00:54:08;100271.40;;;19.10
68588;BMP180;55560;52.174;20.996;2023-09-12T00:56:37;100269.20;;;19.10
68588;BMP180;55560;52.174;20.996;2023-09-12T00:59:05;100265.00;;;19.10
68588;BMP180;55560;52.174;20.996;2023-09-12T01:01:34;100264.40;;;19.10
68588;BMP180;55560;52.174;20.996;2023-09-12T01:04:02;100268.40;;;19.08
68588;BMP180;55560;52.174;20.996;2023-09-12T01:06:33;100262.40;;;19.00
68588;BMP180;55560;52.174;20.996;2023-09-12T01:09:02;100258.20;;;19.00
68588;BMP180;55560;52.174;20.996;2023-09-12T01:11:31;100259.40;;;19.00
68588;BMP180;55560;52.174;20.996;2023-09-12T01:13:58;100257.00;;;19.00
68588;BMP180;55560;52.174;20.996;2023-09-12T01:16:27;100257.40;;;19.00
68588;BMP180;55560;52.174;20.996;2023-09-12T01:18:55;100257.20;;;18.90
68588;BMP180;55560;52.174;20.996;2023-09-12T01:27:30;100258.00;;;18.90
68588;BMP180;55560;52.174;20.996;2023-09-12T01:30:04;100258.20;;;18.80
68588;BMP180;55560;52.174;20.996;2023-09-12T01:32:34;100259.00;;;18.80
68588;BMP180;55560;52.174;20.996;2023-09-12T01:35:03;100256.40;;;18.80
68588;BMP180;55560;52.174;20.996;2023-09-12T01:37:31;100258.20;;;18.80
68588;BMP180;55560;52.174;20.996;2023-09-12T01:40:00;100254.40;;;18.80
68588;BMP180;55560;52.174;20.996;2023-09-12T01:42:38;100256.40;;;18.80
68588;BMP180;55560;52.174;20.996;2023-09-12T01:45:16;100256.20;;;18.80
68588;BMP180;55560;52.174;20.996;2023-09-12T01:47:48;100255.80;;;18.70
68588;BMP180;55560;52.174;20.996;2023-09-12T01:50:19;100253.40;;;18.70
68588;BMP180;55560;52.174;20.996;2023-09-12T01:52:48;100254.40;;;18.70
68588;BMP180;55560;52.174;20.996;2023-09-12T01:55:17;100255.20;;;18.70
68588;BMP180;55560;52.174;20.996;2023-09-12T01:57:46;100246.60;;;18.64
68588;BMP180;55560;52.174;20.996;2023-09-12T02:00:18;100246.20;;;18.60
68588;BMP180;55560;52.174;20.996;2023-09-12T02:02:47;100250.20;;;18.60
68588;BMP180;55560;52.174;20.996;2023-09-12T02:05:22;100245.80;;;18.60
68588;BMP180;55560;52.174;20.996;2023-09-12T02:07:50;100247.40;;;18.60
68588;BMP180;55560;52.174;20.996;2023-09-12T02:10:18;100249.20;;;18.60
68588;BMP180;55560;52.174;20.996;2023-09-12T02:12:48;100249.00;;;18.60
68588;BMP180;55560;52.174;20.996;2023-09-12T02:15:16;100258.20;;;18.60
68588;BMP180;55560;52.174;20.996;2023-09-12T02:17:44;100261.20;;;18.70
68588;BMP180;55560;52.174;20.996;2023-09-12T02:20:12;100258.40;;;18.70
68588;BMP180;55560;52.174;20.996;2023-09-12T02:22:40;100256.40;;;18.70
68588;BMP180;55560;52.174;20.996;2023-09-12T02:25:08;100258.00;;;18.70
68588;BMP180;55560;52.174;20.996;2023-09-12T02:27:36;100260.00;;;18.70
68588;BMP180;55560;52.174;20.996;2023-09-12T02:30:05;100260.20;;;18.70
68588;BMP180;55560;52.174;20.996;2023-09-12T02:32:34;100253.20;;;18.60
68588;BMP180;55560;52.174;20.996;2023-09-12T02:35:02;100253.80;;;18.60
68588;BMP180;55560;52.174;20.996;2023-09-12T02:37:30;100255.60;;;18.60
68588;BMP180;55560;52.174;20.996;2023-09-12T02:39:58;100253.00;;;18.56
68588;BMP180;55560;52.174;20.996;2023-09-12T02:42:26;100252.00;;;18.50
68588;BMP180;55560;52.174;20.996;2023-09-12T02:44:54;100254.00;;;18.50
68588;BMP180;55560;52.174;20.996;2023-09-12T02:47:22;100253.60;;;18.48
68588;BMP180;55560;52.174;20.996;2023-09-12T02:49:50;100258.20;;;18.40
68588;BMP180;55560;52.174;20.996;2023-09-12T02:52:18;100256.60;;;18.40
68588;BMP180;55560;52.174;20.996;2023-09-12T02:54:46;100257.60;;;18.40
68588;BMP180;55560;52.174;20.996;2023-09-12T02:57:14;100258.60;;;18.40
68588;BMP180;55560;52.174;20.996;2023-09-12T02:59:42;100259.20;;;18.34
68588;BMP180;55560;52.174;20.996;2023-09-12T03:02:10;100258.60;;;18.30
68588;BMP180;55560;52.174;20.996;2023-09-12T03:04:38;100259.40;;;18.30
68588;BMP180;55560;52.174;20.996;2023-09-12T03:07:06;100260.80;;;18.28
68588;BMP180;55560;52.174;20.996;2023-09-12T03:09:34;100258.80;;;18.20
68588;BMP180;55560;52.174;20.996;2023-09-12T03:12:04;100254.80;;;18.20
68588;BMP180;55560;52.174;20.996;2023-09-12T03:14:33;100257.00;;;18.10
68588;BMP180;55560;52.174;20.996;2023-09-12T03:17:02;100254.80;;;18.10
68588;BMP180;55560;52.174;20.996;2023-09-12T03:19:31;100256.00;;;18.10
68588;BMP180;55560;52.174;20.996;2023-09-12T03:21:59;100256.60;;;18.10
68588;BMP180;55560;52.174;20.996;2023-09-12T03:24:27;100257.60;;;18.10
68588;BMP180;55560;52.174;20.996;2023-09-12T03:26:56;100255.00;;;18.08
68588;BMP180;55560;52.174;20.996;2023-09-12T03:29:24;100254.00;;;18.02
68588;BMP180;55560;52.174;20.996;2023-09-12T03:31:52;100257.20;;;18.00
68588;BMP180;55560;52.174;20.996;2023-09-12T03:34:20;100253.60;;;18.00
68588;BMP180;55560;52.174;20.996;2023-09-12T03:36:48;100259.40;;;18.00
68588;BMP180;55560;52.174;20.996;2023-09-12T03:39:16;100261.60;;;18.00
68588;BMP180;55560;52.174;20.996;2023-09-12T03:41:44;100258.20;;;17.92
68588;BMP180;55560;52.174;20.996;2023-09-12T03:44:12;100258.00;;;17.90
68588;BMP180;55560;52.174;20.996;2023-09-12T03:46:40;100263.80;;;17.90
68588;BMP180;55560;52.174;20.996;2023-09-12T03:49:08;100261.60;;;17.90
68588;BMP180;55560;52.174;20.996;2023-09-12T03:51:36;100266.20;;;17.90
68588;BMP180;55560;52.174;20.996;2023-09-12T03:54:06;100268.80;;;17.90
68588;BMP180;55560;52.174;20.996;2023-09-12T03:56:34;100271.60;;;17.90
68588;BMP180;55560;52.174;20.996;2023-09-12T03:59:02;100270.20;;;17.88
68588;BMP180;55560;52.174;20.996;2023-09-12T04:01:30;100262.80;;;17.86
68588;BMP180;55560;52.174;20.996;2023-09-12T04:03:58;100267.20;;;17.86
68588;BMP180;55560;52.174;20.996;2023-09-12T04:06:30;100267.80;;;17.90
68588;BMP180;55560;52.174;20.996;2023-09-12T04:08:59;100266.60;;;17.90
68588;BMP180;55560;52.174;20.996;2023-09-12T04:11:26;100267.20;;;17.90
68588;BMP180;55560;52.174;20.996;2023-09-12T04:14:14;100268.60;;;17.90
68588;BMP180;55560;52.174;20.996;2023-09-12T04:16:42;100268.00;;;17.90
68588;BMP180;55560;52.174;20.996;2023-09-12T04:19:10;100269.20;;;17.90
68588;BMP180;55560;52.174;20.996;2023-09-12T04:21:38;100268.60;;;17.90
68588;BMP180;55560;52.174;20.996;2023-09-12T04:24:07;100266.60;;;17.90
68588;BMP180;55560;52.174;20.996;2023-09-12T04:26:36;100270.20;;;17.90
68588;BMP180;55560;52.174;20.996;2023-09-12T04:29:04;100270.80;;;17.90
68588;BMP180;55560;52.174;20.996;2023-09-12T04:31:32;100270.60;;;17.90
68588;BMP180;55560;52.174;20.996;2023-09-12T04:34:00;100268.80;;;17.90
68588;BMP180;55560;52.174;20.996;2023-09-12T04:36:27;100269.80;;;17.90
68588;BMP180;55560;52.174;20.996;2023-09-12T04:38:55;100271.40;;;18.00
68588;BMP180;55560;52.174;20.996;2023-09-12T04:41:23;100275.20;;;18.00
68588;BMP180;55560;52.174;20.996;2023-09-12T04:43:51;100276.40;;;18.00
68588;BMP180;55560;52.174;20.996;2023-09-12T04:46:19;100280.60;;;18.00
68588;BMP180;55560;52.174;20.996;2023-09-12T04:48:47;100280.60;;;18.10
68588;BMP180;55560;52.174;20.996;2023-09-12T04:51:15;100280.00;;;18.10
68588;BMP180;55560;52.174;20.996;2023-09-12T04:53:43;100272.60;;;18.10
68588;BMP180;55560;52.174;20.996;2023-09-12T04:56:12;100279.00;;;18.10
68588;BMP180;55560;52.174;20.996;2023-09-12T04:58:40;100279.40;;;18.16
68588;BMP180;55560;52.174;20.996;2023-09-12T05:01:08;100279.40;;;18.20
68588;BMP180;55560;52.174;20.996;2023-09-12T05:03:37;100278.60;;;18.26
68588;BMP180;55560;52.174;20.996;2023-09-12T05:06:05;100280.00;;;18.30
68588;BMP180;55560;52.174;20.996;2023-09-12T05:08:33;100279.40;;;18.30
68588;BMP180;55560;52.174;20.996;2023-09-12T05:11:02;100283.20;;;18.40
68588;BMP180;55560;52.174;20.996;2023-09-12T05:13:30;100284.00;;;18.40
68588;BMP180;55560;52.174;20.996;2023-09-12T05:15:58;100285.40;;;18.50
68588;BMP180;55560;52.174;20.996;2023-09-12T05:18:27;100285.80;;;18.56
68588;BMP180;55560;52.174;20.996;2023-09-12T05:20:55;100288.40;;;18.60
68588;BMP180;55560;52.174;20.996;2023-09-12T05:23:23;100294.00;;;18.70
68588;BMP180;55560;52.174;20.996;2023-09-12T05:25:51;100291.20;;;18.70
68588;BMP180;55560;52.174;20.996;2023-09-12T05:28:19;100292.60;;;18.80
68588;BMP180;55560;52.174;20.996;2023-09-12T05:30:50;100291.60;;;18.90
68588;BMP180;55560;52.174;20.996;2023-09-12T05:33:18;100293.20;;;19.00
68588;BMP180;55560;52.174;20.996;2023-09-12T05:35:47;100296.80;;;19.10
68588;BMP180;55560;52.174;20.996;2023-09-12T05:38:15;100298.00;;;19.28
68588;BMP180;55560;52.174;20.996;2023-09-12T05:40:43;100301.40;;;19.40
68588;BMP180;55560;52.174;20.996;2023-09-12T05:43:11;100297.00;;;19.52
68588;BMP180;55560;52.174;20.996;2023-09-12T05:45:39;100295.80;;;19.62
68588;BMP180;55560;52.174;20.996;2023-09-12T05:48:07;100301.60;;;19.72
68588;BMP180;55560;52.174;20.996;2023-09-12T05:50:37;100302.20;;;19.90
68588;BMP180;55560;52.174;20.996;2023-09-12T05:53:08;100299.60;;;20.00
68588;BMP180;55560;52.174;20.996;2023-09-12T05:55:36;100303.00;;;20.10
68588;BMP180;55560;52.174;20.996;2023-09-12T05:58:04;100295.20;;;20.20
68588;BMP180;55560;52.174;20.996;2023-09-12T06:00:35;100297.80;;;20.30
68588;BMP180;55560;52.174;20.996;2023-09-12T06:03:03;100305.80;;;20.34
68588;BMP180;55560;52.174;20.996;2023-09-12T06:05:31;100305.40;;;20.40
68588;BMP180;55560;52.174;20.996;2023-09-12T06:08:00;100304.20;;;20.40
68588;BMP180;55560;52.174;20.996;2023-09-12T06:10:28;100304.20;;;20.50
68588;BMP180;55560;52.174;20.996;2023-09-12T06:12:56;100304.60;;;20.50
68588;BMP180;55560;52.174;20.996;2023-09-12T06:15:24;100303.20;;;20.60
68588;BMP180;55560;52.174;20.996;2023-09-12T06:17:52;100305.40;;;20.70
68588;BMP180;55560;52.174;20.996;2023-09-12T06:20:20;100304.40;;;20.90
68588;BMP180;55560;52.174;20.996;2023-09-12T06:22:48;100310.20;;;21.00
68588;BMP180;55560;52.174;20.996;2023-09-12T06:25:17;100311.80;;;21.08
68588;BMP180;55560;52.174;20.996;2023-09-12T06:27:45;100312.80;;;21.18
68588;BMP180;55560;52.174;20.996;2023-09-12T06:30:13;100310.20;;;21.20
68588;BMP180;55560;52.174;20.996;2023-09-12T06:32:42;100315.40;;;21.30
68588;BMP180;55560;52.174;20.996;2023-09-12T06:35:10;100314.60;;;21.40
68588;BMP180;55560;52.174;20.996;2023-09-12T06:37:38;100315.40;;;21.50
68588;BMP180;55560;52.174;20.996;2023-09-12T06:40:07;100316.00;;;21.60
68588;BMP180;55560;52.174;20.996;2023-09-12T06:42:36;100316.00;;;21.62
68588;BMP180;55560;52.174;20.996;2023-09-12T06:45:05;100313.80;;;21.70
68588;BMP180;55560;52.174;20.996;2023-09-12T06:47:33;100313.60;;;21.80
68588;BMP180;55560;52.174;20.996;2023-09-12T06:50:02;100314.60;;;21.80
68588;BMP180;55560;52.174;20.996;2023-09-12T06:52:33;100317.00;;;21.90
68588;BMP180;55560;52.174;20.996;2023-09-12T06:55:00;100323.60;;;22.02
68588;BMP180;55560;52.174;20.996;2023-09-12T06:57:28;100320.00;;;22.20
68588;BMP180;55560;52.174;20.996;2023-09-12T06:59:56;100320.20;;;22.28
68588;BMP180;55560;52.174;20.996;2023-09-12T07:02:26;100321.60;;;22.38
68588;BMP180;55560;52.174;20.996;2023-09-12T07:04:55;100324.00;;;22.50
68588;BMP180;55560;52.174;20.996;2023-09-12T07:07:24;100323.40;;;22.60
68588;BMP180;55560;52.174;20.996;2023-09-12T07:09:52;100333.80;;;22.66
68588;BMP180;55560;52.174;20.996;2023-09-12T07:12:34;100332.20;;;22.78
68588;BMP180;55560;52.174;20.996;2023-09-12T07:15:03;100330.00;;;22.90
68588;BMP180;55560;52.174;20.996;2023-09-12T07:17:32;100332.60;;;23.00
68588;BMP180;55560;52.174;20.996;2023-09-12T07:20:01;100327.80;;;23.14
68588;BMP180;55560;52.174;20.996;2023-09-12T07:22:29;100332.60;;;23.34
68588;BMP180;55560;52.174;20.996;2023-09-12T07:25:00;100328.00;;;23.80
68588;BMP180;55560;52.174;20.996;2023-09-12T07:27:28;100331.20;;;24.28
68588;BMP180;55560;52.174;20.996;2023-09-12T07:29:57;100332.80;;;24.54
68588;BMP180;55560;52.174;20.996;2023-09-12T07:32:27;100332.20;;;25.02
68588;BMP180;55560;52.174;20.996;2023-09-12T07:34:55;100334.00;;;25.42
68588;BMP180;55560;52.174;20.996;2023-09-12T07:37:23;100336.80;;;25.70
68588;BMP180;55560;52.174;20.996;2023-09-12T07:39:51;100337.00;;;26.10
68588;BMP180;55560;52.174;20.996;2023-09-12T07:42:23;100334.40;;;26.46
68588;BMP180;55560;52.174;20.996;2023-09-12T07:44:52;100338.80;;;27.38
68588;BMP180;55560;52.174;20.996;2023-09-12T07:47:20;100339.60;;;27.76
68588;BMP180;55560;52.174;20.996;2023-09-12T07:49:55;100340.20;;;27.90
68588;BMP180;55560;52.174;20.996;2023-09-12T07:52:23;100337.00;;;27.80
68588;BMP180;55560;52.174;20.996;2023-09-12T07:54:51;100336.40;;;27.60
68588;BMP180;55560;52.174;20.996;2023-09-12T07:57:25;100337.40;;;27.50
68588;BMP180;55560;52.174;20.996;2023-09-12T07:59:53;100334.20;;;27.36
68588;BMP180;55560;52.174;20.996;2023-09-12T08:02:22;100335.40;;;27.20
68588;BMP180;55560;52.174;20.996;2023-09-12T08:04:51;100332.80;;;27.00
68588;BMP180;55560;52.174;20.996;2023-09-12T08:07:19;100335.20;;;27.00
68588;BMP180;55560;52.174;20.996;2023-09-12T08:09:55;100335.60;;;26.82
68588;BMP180;55560;52.174;20.996;2023-09-12T08:12:28;100332.60;;;26.70
68588;BMP180;55560;52.174;20.996;2023-09-12T08:14:56;100335.00;;;26.70
68588;BMP180;55560;52.174;20.996;2023-09-12T08:17:24;100335.60;;;26.60
68588;BMP180;55560;52.174;20.996;2023-09-12T08:19:52;100335.80;;;26.60
68588;BMP180;55560;52.174;20.996;2023-09-12T08:22:21;100334.60;;;26.60
68588;BMP180;55560;52.174;20.996;2023-09-12T08:24:49;100336.20;;;26.50
68588;BMP180;55560;52.174;20.996;2023-09-12T08:27:17;100338.40;;;26.50
68588;BMP180;55560;52.174;20.996;2023-09-12T08:29:46;100337.40;;;26.50
68588;BMP180;55560;52.174;20.996;2023-09-12T08:32:16;100337.40;;;26.50
68588;BMP180;55560;52.174;20.996;2023-09-12T08:34:45;100336.80;;;26.52
68588;BMP180;55560;52.174;20.996;2023-09-12T08:37:13;100333.60;;;26.60
68588;BMP180;55560;52.174;20.996;2023-09-12T08:39:44;100332.20;;;26.76
68588;BMP180;55560;52.174;20.996;2023-09-12T08:42:16;100336.20;;;27.10
68588;BMP180;55560;52.174;20.996;2023-09-12T08:44:44;100339.20;;;27.20
68588;BMP180;55560;52.174;20.996;2023-09-12T08:47:14;100341.00;;;27.20
68588;BMP180;55560;52.174;20.996;2023-09-12T08:49:44;100338.60;;;27.12
68588;BMP180;55560;52.174;20.996;2023-09-12T08:52:12;100338.60;;;27.10
68588;BMP180;55560;52.174;20.996;2023-09-12T08:54:40;100340.00;;;27.10
68588;BMP180;55560;52.174;20.996;2023-09-12T08:57:10;100335.80;;;27.10
68588;BMP180;55560;52.174;20.996;2023-09-12T08:59:42;100335.60;;;27.00
68588;BMP180;55560;52.174;20.996;2023-09-12T09:02:11;100334.40;;;27.04
68588;BMP180;55560;52.174;20.996;2023-09-12T09:04:41;100334.40;;;27.06
68588;BMP180;55560;52.174;20.996;2023-09-12T09:07:11;100337.60;;;27.10
68588;BMP180;55560;52.174;20.996;2023-09-12T09:09:41;100337.20;;;27.10
68588;BMP180;55560;52.174;20.996;2023-09-12T09:12:10;100334.00;;;27.10
68588;BMP180;55560;52.174;20.996;2023-09-12T09:14:39;100333.80;;;27.10
68588;BMP180;55560;52.174;20.996;2023-09-12T09:17:08;100333.60;;;27.10
68588;BMP180;55560;52.174;20.996;2023-09-12T09:19:51;100333.00;;;27.20
68588;BMP180;55560;52.174;20.996;2023-09-12T09:22:22;100332.80;;;27.20
68588;BMP180;55560;52.174;20.996;2023-09-12T09:25:09;100330.00;;;27.20
68588;BMP180;55560;52.174;20.996;2023-09-12T09:27:38;100327.00;;;27.30
68588;BMP180;55560;52.174;20.996;2023-09-12T09:30:07;100325.40;;;27.30
68588;BMP180;55560;52.174;20.996;2023-09-12T09:32:37;100318.00;;;27.30
68588;BMP180;55560;52.174;20.996;2023-09-12T09:35:07;100318.60;;;27.30
68588;BMP180;55560;52.174;20.996;2023-09-12T09:37:35;100318.20;;;27.40
68588;BMP180;55560;52.174;20.996;2023-09-12T09:40:07;100324.20;;;27.40
68588;BMP180;55560;52.174;20.996;2023-09-12T09:42:37;100322.40;;;27.50
68588;BMP180;55560;52.174;20.996;2023-09-12T09:45:06;100320.80;;;27.50
68588;BMP180;55560;52.174;20.996;2023-09-12T09:47:35;100321.60;;;27.50
68588;BMP180;55560;52.174;20.996;2023-09-12T09:50:03;100317.80;;;27.60
68588;BMP180;55560;52.174;20.996;2023-09-12T09:52:32;100318.60;;;27.60
68588;BMP180;55560;52.174;20.996;2023-09-12T09:55:00;100321.60;;;27.60
68588;BMP180;55560;52.174;20.996;2023-09-12T09:57:28;100315.80;;;27.60
68588;BMP180;55560;52.174;20.996;2023-09-12T09:59:57;100317.80;;;27.60
68588;BMP180;55560;52.174;20.996;2023-09-12T10:02:26;100314.80;;;27.60
68588;BMP180;55560;52.174;20.996;2023-09-12T10:04:56;100318.20;;;27.70
68588;BMP180;55560;52.174;20.996;2023-09-12T10:07:28;100314.20;;;27.70
68588;BMP180;55560;52.174;20.996;2023-09-12T10:10:02;100309.20;;;27.80
68588;BMP180;55560;52.174;20.996;2023-09-12T10:12:35;100308.40;;;27.80
68588;BMP180;55560;52.174;20.996;2023-09-12T10:15:06;100310.80;;;27.80
68588;BMP180;55560;52.174;20.996;2023-09-12T10:17:37;100312.00;;;27.84
68588;BMP180;55560;52.174;20.996;2023-09-12T10:20:15;100310.20;;;27.90
68588;BMP180;55560;52.174;20.996;2023-09-12T10:22:55;100309.40;;;27.90
68588;BMP180;55560;52.174;20.996;2023-09-12T10:25:24;100306.00;;;27.90
68588;BMP180;55560;52.174;20.996;2023-09-12T10:27:54;100303.40;;;27.90
68588;BMP180;55560;52.174;20.996;2023-09-12T10:30:23;100302.40;;;27.98
68588;BMP180;55560;52.174;20.996;2023-09-12T10:32:53;100304.20;;;28.00
68588;BMP180;55560;52.174;20.996;2023-09-12T10:35:23;100306.20;;;28.08
68588;BMP180;55560;52.174;20.996;2023-09-12T10:37:53;100309.60;;;28.10
68588;BMP180;55560;52.174;20.996;2023-09-12T10:40:22;100307.60;;;28.14
68588;BMP180;55560;52.174;20.996;2023-09-12T10:42:52;100304.20;;;28.20
68588;BMP180;55560;52.174;20.996;2023-09-12T10:45:23;100304.60;;;28.30
68588;BMP180;55560;52.174;20.996;2023-09-12T10:47:52;100300.00;;;28.30
68588;BMP180;55560;52.174;20.996;2023-09-12T10:50:20;100301.80;;;28.30
68588;BMP180;55560;52.174;20.996;2023-09-12T10:52:49;100300.40;;;28.36
68588;BMP180;55560;52.174;20.996;2023-09-12T10:55:18;100297.00;;;28.40
68588;BMP180;55560;52.174;20.996;2023-09-12T10:58:08;100302.00;;;28.50
68588;BMP180;55560;52.174;20.996;2023-09-12T11:00:37;100295.80;;;28.50
68588;BMP180;55560;52.174;20.996;2023-09-12T11:03:37;100298.20;;;28.60
68588;BMP180;55560;52.174;20.996;2023-09-12T11:06:20;100300.40;;;28.60
68588;BMP180;55560;52.174;20.996;2023-09-12T11:09:21;100298.20;;;28.60
68588;BMP180;55560;52.174;20.996;2023-09-12T11:12:04;100294.20;;;28.60
68588;BMP180;55560;52.174;20.996;2023-09-12T11:14:35;100296.20;;;28.60
68588;BMP180;55560;52.174;20.996;2023-09-12T11:20:03;100290.00;;;28.70
68588;BMP180;55560;52.174;20.996;2023-09-12T11:22:46;100285.80;;;28.70
68588;BMP180;55560;52.174;20.996;2023-09-12T11:25:16;100287.20;;;28.80
68588;BMP180;55560;52.174;20.996;2023-09-12T11:28:03;100287.60;;;28.82
68588;BMP180;55560;52.174;20.996;2023-09-12T11:30:32;100290.20;;;28.90
68588;BMP180;55560;52.174;20.996;2023-09-12T11:33:10;100288.20;;;29.00
68588;BMP180;55560;52.174;20.996;2023-09-12T11:35:39;100288.20;;;29.00
68588;BMP180;55560;52.174;20.996;2023-09-12T11:38:10;100284.00;;;29.10
68588;BMP180;55560;52.174;20.996;2023-09-12T11:43:24;100288.80;;;29.20
68588;BMP180;55560;52.174;20.996;2023-09-12T11:45:56;100294.00;;;29.30
68588;BMP180;55560;52.174;20.996;2023-09-12T11:48:24;100292.40;;;29.30
68588;BMP180;55560;52.174;20.996;2023-09-12T11:50:56;100289.00;;;29.30
68588;BMP180;55560;52.174;20.996;2023-09-12T11:53:27;100287.80;;;29.30
68588;BMP180;55560;52.174;20.996;2023-09-12T11:56:00;100286.80;;;29.40
68588;BMP180;55560;52.174;20.996;2023-09-12T11:58:28;100287.20;;;29.40
68588;BMP180;55560;52.174;20.996;2023-09-12T12:00:58;100278.60;;;29.46
68588;BMP180;55560;52.174;20.996;2023-09-12T12:03:28;100275.20;;;29.50
68588;BMP180;55560;52.174;20.996;2023-09-12T12:05:57;100276.00;;;29.50
68588;BMP180;55560;52.174;20.996;2023-09-12T12:08:26;100277.20;;;29.60
68588;BMP180;55560;52.174;20.996;2023-09-12T12:10:59;100281.00;;;29.60
68588;BMP180;55560;52.174;20.996;2023-09-12T12:13:28;100280.40;;;29.70
68588;BMP180;55560;52.174;20.996;2023-09-12T12:15:58;100278.40;;;29.72
68588;BMP180;55560;52.174;20.996;2023-09-12T12:18:27;100277.40;;;29.66
68588;BMP180;55560;52.174;20.996;2023-09-12T12:20:56;100279.40;;;29.60
68588;BMP180;55560;52.174;20.996;2023-09-12T12:23:25;100279.80;;;29.50
68588;BMP180;55560;52.174;20.996;2023-09-12T12:25:53;100279.40;;;29.48
68588;BMP180;55560;52.174;20.996;2023-09-12T12:28:23;100278.60;;;29.40
68588;BMP180;55560;52.174;20.996;2023-09-12T12:30:52;100276.60;;;29.30
68588;BMP180;55560;52.174;20.996;2023-09-12T12:33:22;100276.00;;;29.30
68588;BMP180;55560;52.174;20.996;2023-09-12T12:36:11;100269.80;;;29.40
68588;BMP180;55560;52.174;20.996;2023-09-12T12:38:39;100267.20;;;29.50
68588;BMP180;55560;52.174;20.996;2023-09-12T12:41:36;100266.20;;;29.60
68588;BMP180;55560;52.174;20.996;2023-09-12T12:44:17;100263.40;;;29.78
68588;BMP180;55560;52.174;20.996;2023-09-12T12:46:53;100266.40;;;29.88
68588;BMP180;55560;52.174;20.996;2023-09-12T12:49:22;100262.00;;;30.00
68588;BMP180;55560;52.174;20.996;2023-09-12T12:51:52;100265.80;;;30.06
68588;BMP180;55560;52.174;20.996;2023-09-12T12:54:22;100267.20;;;30.22
68588;BMP180;55560;52.174;20.996;2023-09-12T12:56:51;100266.20;;;30.42
68588;BMP180;55560;52.174;20.996;2023-09-12T12:59:20;100266.00;;;30.60
68588;BMP180;55560;52.174;20.996;2023-09-12T13:01:50;100262.20;;;30.80
68588;BMP180;55560;52.174;20.996;2023-09-12T13:04:20;100258.80;;;31.00
68588;BMP180;55560;52.174;20.996;2023-09-12T13:06:49;100264.40;;;31.20
68588;BMP180;55560;52.174;20.996;2023-09-12T13:09:17;100261.00;;;31.40
68588;BMP180;55560;52.174;20.996;2023-09-12T13:11:45;100257.40;;;31.50
68588;BMP180;55560;52.174;20.996;2023-09-12T13:14:14;100259.60;;;31.60
68588;BMP180;55560;52.174;20.996;2023-09-12T13:16:41;100261.80;;;31.52
68588;BMP180;55560;52.174;20.996;2023-09-12T13:19:10;100259.00;;;31.60
68588;BMP180;55560;52.174;20.996;2023-09-12T13:21:41;100264.20;;;31.60
68588;BMP180;55560;52.174;20.996;2023-09-12T13:24:10;100263.20;;;31.60
68588;BMP180;55560;52.174;20.996;2023-09-12T13:26:38;100256.80;;;31.54
68588;BMP180;55560;52.174;20.996;2023-09-12T13:29:08;100260.00;;;31.50
68588;BMP180;55560;52.174;20.996;2023-09-12T13:31:36;100257.00;;;31.40
68588;BMP180;55560;52.174;20.996;2023-09-12T13:34:04;100256.60;;;31.30
68588;BMP180;55560;52.174;20.996;2023-09-12T13:36:32;100252.60;;;31.40
68588;BMP180;55560;52.174;20.996;2023-09-12T13:39:00;100251.80;;;31.50
68588;BMP180;55560;52.174;20.996;2023-09-12T13:41:29;100256.20;;;31.64
68588;BMP180;55560;52.174;20.996;2023-09-12T13:43:57;100253.80;;;31.80
68588;BMP180;55560;52.174;20.996;2023-09-12T13:46:24;100256.80;;;32.00
68588;BMP180;55560;52.174;20.996;2023-09-12T13:48:52;100252.20;;;32.10
68588;BMP180;55560;52.174;20.996;2023-09-12T13:51:21;100249.60;;;32.18
68588;BMP180;55560;52.174;20.996;2023-09-12T13:53:49;100250.40;;;32.20
68588;BMP180;55560;52.174;20.996;2023-09-12T13:56:17;100254.20;;;32.40
68588;BMP180;55560;52.174;20.996;2023-09-12T13:58:45;100256.80;;;32.48
68588;BMP180;55560;52.174;20.996;2023-09-12T14:01:17;100256.40;;;32.62
68588;BMP180;55560;52.174;20.996;2023-09-12T14:04:02;100265.00;;;33.54
68588;BMP180;55560;52.174;20.996;2023-09-12T14:06:33;100264.20;;;34.60
68588;BMP180;55560;52.174;20.996;2023-09-12T14:09:04;100264.60;;;34.50
68588;BMP180;55560;52.174;20.996;2023-09-12T14:11:33;100260.20;;;34.18